Jasper, Florida
Current Conditions -  °F | °C
As of 2:15 PM on Friday 24 Oct 2014 (Local Time) from K24J Reporting Station
Clear Clear  
Wind Chill: 75°   Ceiling: Unl
Heat Index: 75°   Visibility: 10mi
Dew Point: 46°   Wind: 5mph
Humidity: 36%   Direction: 20°NNE
Pressure: 30.02"   Gusts: NA
Location:  30.52°N, 82.95°W
Report Text: K24J 241815Z AUTO 02004KT 10SM CLR 24/08 A3002 RMK AO1
Loading
Personal Weather Stations






























Interactive Weather Map
Tropical Storm Tracking
New forecast layout! Learn more

10-Day Weather Forecast

Advertisements
Track Severe Weather on mobile